Adair, Illinois
Current Conditions -  °F | °C
As of 11:35 PM on Thursday 30 Oct 2014 (Local Time) from KMQB Reporting Station
Overcast Overcast  
Wind Chill:   Ceiling: 7500
Heat Index:   Visibility: 7mi
Dew Point:   Wind: 5mph
Humidity: 89%   Direction: 350°N
Pressure: 30.12"   Gusts: NA
Location:  40.42°N, 90.5°W
Report Text: KMQB 310435Z AUTO 35004KT 7SM BKN075 BKN085 OVC100 07/05 A3012 RMK AO2 T00680051
Loading
Personal Weather Stations






























Interactive Weather Map
Tropical Storm Tracking
New forecast layout! Learn more

10-Day Weather Forecast

Advertisements
Track Severe Weather on mobile